Montmorenci, IN (47962)

2:59 AM EDT on July 01, 2015 (GMT -0400)
APRSWXNET | | Change Station
CLOSE
Current Station
Personal Weather Station
Location: Montmorenci, IN
Elevation: 666 ft
Nearby Weather Stations
Active Advisory: Flood Warning

Elev 666 ft 40.44 °N, 87.03 °W | Updated 23 minutes ago

Clear
Clear
63 °F
Feels Like 63 °F
N
0
Wind Variable Wind from NNW
Gusts 0.0 mph

Today
High -- | Low -- °F
--% Chance of Precip.
Yesterday
High -- | Low -- °F
Precip. -- in
6:21 AM 9:22 PM
Waxing Gibbous, 99% visible
Pressure 29.89 in
Visibility 8.0 miles
Clouds Clear
Dew Point 61 °F
Humidity 94%
Rainfall in
Snow Depth Not available.
UV 0 out of 12
Pollen 4.10 out of 12
Air Quality Not available.
Flu Activity Not available.
METAR KLAF 010654Z AUTO 01004KT 8SM CLR 17/15 A2990 RMK AO2 SLP121 T01670150

More Conditions Fewer Conditions

Pressure 29.89 in
Visibility 8.0 miles
Clouds Clear
Dew Point 61 °F
Humidity 94%
Rainfall in
Snow Depth Not available.
UV 0 out of 12
Pollen 4.10 out of 12
Air Quality Not available.
Flu Activity Not available.
METAR KLAF 010654Z AUTO 01004KT 8SM CLR 17/15 A2990 RMK AO2 SLP121 T01670150

More Conditions Fewer Conditions

10-Day Weather Forecast

×

Almanac

Astronomy

Jul. 01, 2015 Rise Set
Actual Time
Civil Twilight
Nautical Twilight
Astronomical Twilight
Moon
Length of Visible Light
Length of Day
Tomorrow will be .
, % of the Moon is Illuminated

Today's Extremes

State Highs State Lows

Community

WunderPhotos

Upload Photos

1,834,162 photos uploaded!

WunderBlogs® & News

Nearby

Air Quality

  Air Quality AQ Index Pollutant
Not available.

Snow Depth

Station Depth Elevation

Earthquake Activity

City Distance Mag. Time & Date
Minimum magnitude displayed is 2.5.

Coastal Water Temperatures

Place Temperature

Stations

Nearby Weather Stations

Station Location Temp. Windchill Dew Point Humidity Wind Precip. Elev Updated Type
                   
Flood Warning
Statement as of 12:30 PM EDT on June 30, 2015

The Flood Warning continues for
the Wabash River at Lafayette.
* Until further notice.
* At 11:45 am Tuesday the stage was 20.5 feet.
* Flood stage is 11.0 feet.
* Moderate flooding is occurring and moderate flooding is forecast.
* Forecast... the river will continue to fall to a stage of 19.7 feet
by tomorrow morning.
* At 20.0 feet... extensive flooding increases. Flood waters begin to
cover stair Road located on the southeast side of the river just
off sr 225 in NE Tippecanoe County. Low portions of Barton beach
Rd is flooded. Several river residences are nearly isolated by high
water. River residences near Interstate 65 are affected by high
water. River Road near River Bend hospital floods. Local roads
begin to flood in the Granville bridge area. River residents become
concerned.


Lat... Lon 4056 8673 4048 8688 4040 8709 4033 8709
      4040 8688 4054 8670